Skip to main content.
Station Historical Data
 
Daily Summary for September 22, 2017 Units:  Both    English   Metric
« Previous Day
Next Day »
Daily Weekly Monthly Yearly Custom
  Current: High: Low: Average:
Temperature: 92.1 °F /  33.4 °C 92.1 °F /  33.4 °C 73.9 °F /  23.3 °C 80.6 °F /  27 °C
Dew Point: 69.6 °F /  20.9 °C 72 °F /  22.2 °C 68.4 °F /  20.2 °C 70 °F /  21.1 °C
Humidity: 48 % 83 % 47 % 71 %
Wind Speed: 15.7 mph /  25.3 km/h 19.9 mph /  32.0 km/h - 12.4 mph /  19.9 km/h
Wind Gust: 20.7 mph /  33.3 km/h 27.6 mph /  44.4 km/h - -
Wind:SE - - South
Pressure: 29.7 in /  1005.0 hPa 29.7 in /  1006.0 hPa 29.7 in /  1005.0 hPa -
Precipitation: 0 in /  0.0 mm      
Historical Graphs
 
 
Tabular Data for September 22, 2017
Time Temperature Dew Point Pressure Wind Wind Speed Wind Gust Humidity Rainfall Rate (Hourly) solar Conditions
00:03 81.3 °F /  27.4 °C 71.8 °F /  22.1 °C 29.7 in /  1005.0 hPa South 14 mph /  22.5 km/h 18.4 mph /  29.6 km/h 73 % 0 in /  0.0 mm 0.0 W/m2 FEW
00:08 81.1 °F /  27.3 °C 71.8 °F /  22.1 °C 29.7 in /  1005.0 hPa South 14.8 mph /  23.8 km/h 21.9 mph /  35.2 km/h 73 % 0 in /  0.0 mm 0.0 W/m2 FEW
00:13 81 °F /  27.2 °C 72 °F /  22.2 °C 29.7 in /  1005.0 hPa SSE 10.8 mph /  17.4 km/h 13.8 mph /  22.2 km/h 74 % 0 in /  0.0 mm 0.0 W/m2 FEW
00:18 80.8 °F /  27.1 °C 71.8 °F /  22.1 °C 29.7 in /  1005.0 hPa SSE 12.3 mph /  19.8 km/h 20.7 mph /  33.3 km/h 74 % 0 in /  0.0 mm 0.0 W/m2 FEW
00:23 80.8 °F /  27.1 °C 71.6 °F /  22.0 °C 29.7 in /  1005.0 hPa South 10.9 mph /  17.5 km/h 16.1 mph /  25.9 km/h 74 % 0 in /  0.0 mm 0.0 W/m2 FEW
00:28 80.8 °F /  27.1 °C 71.6 °F /  22.0 °C 29.7 in /  1005.0 hPa South 13.7 mph /  22.0 km/h 24.2 mph /  38.9 km/h 74 % 0 in /  0.0 mm 0.0 W/m2 FEW
00:33 80.6 °F /  27.0 °C 71.4 °F /  21.9 °C 29.7 in /  1005.0 hPa SSE 16.2 mph /  26.1 km/h 21 mph /  33.8 km/h 74 % 0 in /  0.0 mm 0.0 W/m2 FEW
00:34 80.6 °F /  27.0 °C 71.4 °F /  21.9 °C 29.7 in /  1005.0 hPa SE 16.4 mph /  26.4 km/h 21.9 mph /  35.2 km/h 74 % 0 in /  0.0 mm 0.0 W/m2 FEW
00:39 80.8 °F /  27.1 °C 71.6 °F /  22.0 °C 29.7 in /  1005.0 hPa SE 11.2 mph /  18.0 km/h 19.6 mph /  31.5 km/h 74 % 0 in /  0.0 mm 0.0 W/m2 FEW
00:44 80.8 °F /  27.1 °C 71.6 °F /  22.0 °C 29.7 in /  1005.0 hPa SSE 13.6 mph /  21.9 km/h 18.4 mph /  29.6 km/h 74 % 0 in /  0.0 mm 0.0 W/m2 FEW
00:49 80.6 °F /  27.0 °C 71.4 °F /  21.9 °C 29.7 in /  1005.0 hPa South 15.6 mph /  25.1 km/h 21.9 mph /  35.2 km/h 74 % 0 in /  0.0 mm 0.0 W/m2 FEW
00:51 80.6 °F /  27.0 °C 72 °F /  22.2 °C 29.7 in /  1005.0 hPa SSE 12 mph /  19.3 km/h 19.6 mph /  31.5 km/h 75 % 0 in /  0.0 mm 0.0 W/m2 FEW
00:56 80.8 °F /  27.1 °C 71.6 °F /  22.0 °C 29.7 in /  1005.0 hPa South 11.6 mph /  18.7 km/h 17.3 mph /  27.8 km/h 74 % 0 in /  0.0 mm 0.0 W/m2 FEW
01:01 80.6 °F /  27.0 °C 72 °F /  22.2 °C 29.7 in /  1005.0 hPa South 13.2 mph /  21.2 km/h 19.6 mph /  31.5 km/h 75 % 0 in /  0.0 mm 0.0 W/m2 FEW
01:06 80.4 °F /  26.9 °C 71.8 °F /  22.1 °C 29.7 in /  1005.0 hPa SSE 8 mph /  12.9 km/h 19.6 mph /  31.5 km/h 75 % 0 in /  0.0 mm 0.0 W/m2 FEW
01:11 80.4 °F /  26.9 °C 71.8 °F /  22.1 °C 29.7 in /  1005.0 hPa South 9.7 mph /  15.6 km/h 19 mph /  30.6 km/h 75 % 0 in /  0.0 mm 0.0 W/m2 FEW
01:16 80.4 °F /  26.9 °C 71.8 °F /  22.1 °C 29.7 in /  1005.0 hPa South 15.7 mph /  25.3 km/h 19.6 mph /  31.5 km/h 75 % 0 in /  0.0 mm 0.0 W/m2 FEW
01:21 80.4 °F /  26.9 °C 71.8 °F /  22.1 °C 29.7 in /  1005.0 hPa South 8.9 mph /  14.3 km/h 19.6 mph /  31.5 km/h 75 % 0 in /  0.0 mm 0.0 W/m2 FEW
01:26 80.4 °F /  26.9 °C 71.8 °F /  22.1 °C 29.7 in /  1005.0 hPa South 12.7 mph /  20.4 km/h 20.7 mph /  33.3 km/h 75 % 0 in /  0.0 mm 0.0 W/m2 FEW
01:31 80.2 °F /  26.8 °C 71.6 °F /  22.0 °C 29.7 in /  1005.0 hPa South 11.7 mph /  18.8 km/h 23 mph /  37.0 km/h 75 % 0 in /  0.0 mm 0.0 W/m2 FEW
01:36 80.4 °F /  26.9 °C 71.8 °F /  22.1 °C 29.7 in /  1005.3 hPa South 14.4 mph /  23.2 km/h 20 mph /  32.2 km/h 75 % 0 in /  0.0 mm 0.0 W/m2 FEW
01:41 80.4 °F /  26.9 °C 71.8 °F /  22.1 °C 29.7 in /  1005.3 hPa South 13.6 mph /  21.9 km/h 20.7 mph /  33.3 km/h 75 % 0 in /  0.0 mm 0.0 W/m2 FEW
01:46 80.4 °F /  26.9 °C 71.8 °F /  22.1 °C 29.7 in /  1005.3 hPa SSE 12.9 mph /  20.8 km/h 21 mph /  33.8 km/h 75 % 0 in /  0.0 mm 0.0 W/m2 FEW
01:51 80.4 °F /  26.9 °C 71.8 °F /  22.1 °C 29.7 in /  1005.3 hPa SSW 14.2 mph /  22.8 km/h 23 mph /  37.0 km/h 75 % 0 in /  0.0 mm 0.0 W/m2 FEW
01:56 80.4 °F /  26.9 °C 71.8 °F /  22.1 °C 29.7 in /  1005.3 hPa South 11.3 mph /  18.2 km/h 15 mph /  24.1 km/h 75 % 0 in /  0.0 mm 0.0 W/m2 FEW
02:01 80.4 °F /  26.9 °C 71.8 °F /  22.1 °C 29.7 in /  1005.3 hPa South 13.4 mph /  21.6 km/h 19.6 mph /  31.5 km/h 75 % 0 in /  0.0 mm 0.0 W/m2 FEW
02:06 80.2 °F /  26.8 °C 71.6 °F /  22.0 °C 29.7 in /  1005.3 hPa South 16.7 mph /  26.9 km/h 25.3 mph /  40.7 km/h 75 % 0 in /  0.0 mm 0.0 W/m2 FEW
02:11 80.2 °F /  26.8 °C 71.6 °F /  22.0 °C 29.7 in /  1005.3 hPa South 13.9 mph /  22.4 km/h 19.6 mph /  31.5 km/h 75 % 0 in /  0.0 mm 0.0 W/m2 FEW
02:16 80.2 °F /  26.8 °C 71.6 °F /  22.0 °C 29.7 in /  1005.3 hPa SSW 12.8 mph /  20.6 km/h 18.4 mph /  29.6 km/h 75 % 0 in /  0.0 mm 0.0 W/m2 FEW
02:21 80.2 °F /  26.8 °C 71.6 °F /  22.0 °C 29.7 in /  1005.0 hPa South 12.1 mph /  19.5 km/h 18.4 mph /  29.6 km/h 75 % 0 in /  0.0 mm 0.0 W/m2 FEW
02:26 80.1 °F /  26.7 °C 71.4 °F /  21.9 °C 29.7 in /  1005.0 hPa South 13.9 mph /  22.4 km/h 20.7 mph /  33.3 km/h 75 % 0 in /  0.0 mm 0.0 W/m2 FEW
02:31 80.1 °F /  26.7 °C 71.4 °F /  21.9 °C 29.7 in /  1005.0 hPa South 16.2 mph /  26.1 km/h 23 mph /  37.0 km/h 75 % 0 in /  0.0 mm 0.0 W/m2 FEW
02:36 79.9 °F /  26.6 °C 71.2 °F /  21.8 °C 29.7 in /  1005.0 hPa South 15 mph /  24.1 km/h 19.6 mph /  31.5 km/h 75 % 0 in /  0.0 mm 0.0 W/m2 FEW
02:41 79.9 °F /  26.6 °C 71.2 °F /  21.8 °C 29.7 in /  1005.0 hPa SSE 9.9 mph /  15.9 km/h 12.7 mph /  20.4 km/h 75 % 0 in /  0.0 mm 0.0 W/m2 FEW
02:46 79.9 °F /  26.6 °C 71.2 °F /  21.8 °C 29.7 in /  1005.0 hPa South 11.7 mph /  18.8 km/h 19.6 mph /  31.5 km/h 75 % 0 in /  0.0 mm 0.0 W/m2 FEW
02:51 79.7 °F /  26.5 °C 71.1 °F /  21.7 °C 29.7 in /  1005.0 hPa South 12.5 mph /  20.1 km/h 18.4 mph /  29.6 km/h 75 % 0 in /  0.0 mm 0.0 W/m2 FEW
02:56 79.5 °F /  26.4 °C 71.2 °F /  21.8 °C 29.7 in /  1005.0 hPa SSW 10.8 mph /  17.4 km/h 18.4 mph /  29.6 km/h 76 % 0 in /  0.0 mm 0.0 W/m2 FEW
03:01 79.3 °F /  26.3 °C 71.2 °F /  21.8 °C 29.7 in /  1005.0 hPa SE 13.9 mph /  22.4 km/h 20.7 mph /  33.3 km/h 76 % 0 in /  0.0 mm 0.0 W/m2 FEW
03:06 79.5 °F /  26.4 °C 70.9 °F /  21.6 °C 29.7 in /  1005.0 hPa South 14.6 mph /  23.5 km/h 19.6 mph /  31.5 km/h 75 % 0 in /  0.0 mm 0.0 W/m2 FEW
03:11 79.3 °F /  26.3 °C 71.2 °F /  21.8 °C 29.7 in /  1005.0 hPa South 10.2 mph /  16.4 km/h 16.1 mph /  25.9 km/h 76 % 0 in /  0.0 mm 0.0 W/m2 FEW
03:16 79.3 °F /  26.3 °C 71.2 °F /  21.8 °C 29.7 in /  1005.0 hPa SSE 14.9 mph /  24.0 km/h 22 mph /  35.4 km/h 76 % 0 in /  0.0 mm 0.0 W/m2 FEW
03:21 79.2 °F /  26.2 °C 71.1 °F /  21.7 °C 29.7 in /  1005.3 hPa SSE 13.7 mph /  22.0 km/h 19 mph /  30.6 km/h 76 % 0 in /  0.0 mm 0.0 W/m2 FEW
03:26 79.2 °F /  26.2 °C 70.9 °F /  21.6 °C 29.7 in /  1005.0 hPa South 11.8 mph /  19.0 km/h 19.6 mph /  31.5 km/h 76 % 0 in /  0.0 mm 0.0 W/m2 FEW
03:31 79.2 °F /  26.2 °C 70.9 °F /  21.6 °C 29.7 in /  1005.0 hPa South 12.4 mph /  20.0 km/h 18.4 mph /  29.6 km/h 76 % 0 in /  0.0 mm 0.0 W/m2 FEW
03:36 79.2 °F /  26.2 °C 70.9 °F /  21.6 °C 29.7 in /  1005.0 hPa South 10.7 mph /  17.2 km/h 17.3 mph /  27.8 km/h 76 % 0 in /  0.0 mm 0.0 W/m2 FEW
03:41 79 °F /  26.1 °C 70.9 °F /  21.6 °C 29.7 in /  1005.0 hPa South 11.7 mph /  18.8 km/h 18.4 mph /  29.6 km/h 76 % 0 in /  0.0 mm 0.0 W/m2 FEW
03:46 79 °F /  26.1 °C 70.7 °F /  21.5 °C 29.7 in /  1005.0 hPa South 11.9 mph /  19.1 km/h 16.1 mph /  25.9 km/h 76 % 0 in /  0.0 mm 0.0 W/m2 FEW
03:51 79 °F /  26.1 °C 70.7 °F /  21.5 °C 29.7 in /  1005.0 hPa SSE 11.4 mph /  18.3 km/h 17.3 mph /  27.8 km/h 76 % 0 in /  0.0 mm 0.0 W/m2 FEW
03:56 79 °F /  26.1 °C 70.9 °F /  21.6 °C 29.7 in /  1005.0 hPa South 14.1 mph /  22.7 km/h 19.6 mph /  31.5 km/h 76 % 0 in /  0.0 mm 0.0 W/m2 FEW
04:01 79 °F /  26.1 °C 70.3 °F /  21.3 °C 29.7 in /  1005.0 hPa SSW 13.8 mph /  22.2 km/h 19.6 mph /  31.5 km/h 75 % 0 in /  0.0 mm 0.0 W/m2 FEW
04:06 79 °F /  26.1 °C 70.7 °F /  21.5 °C 29.7 in /  1005.0 hPa South 13.2 mph /  21.2 km/h 16.1 mph /  25.9 km/h 76 % 0 in /  0.0 mm 0.0 W/m2 FEW
04:11 78.8 °F /  26.0 °C 70.5 °F /  21.4 °C 29.7 in /  1005.3 hPa SSW 11.6 mph /  18.7 km/h 16.1 mph /  25.9 km/h 76 % 0 in /  0.0 mm 0.0 W/m2 FEW
04:16 78.6 °F /  25.9 °C 70.5 °F /  21.4 °C 29.7 in /  1005.3 hPa SSW 11.3 mph /  18.2 km/h 17.3 mph /  27.8 km/h 76 % 0 in /  0.0 mm 0.0 W/m2 FEW
04:21 78.6 °F /  25.9 °C 70.3 °F /  21.3 °C 29.7 in /  1005.3 hPa South 8.7 mph /  14.0 km/h 11.5 mph /  18.5 km/h 76 % 0 in /  0.0 mm 0.0 W/m2 FEW
04:26 78.4 °F /  25.8 °C 70.3 °F /  21.3 °C 29.7 in /  1005.3 hPa SSE 9.8 mph /  15.8 km/h 15 mph /  24.1 km/h 76 % 0 in /  0.0 mm 0.0 W/m2 FEW
04:31 78.4 °F /  25.8 °C 70.2 °F /  21.2 °C 29.7 in /  1005.3 hPa SSW 10.5 mph /  16.9 km/h 13 mph /  20.9 km/h 76 % 0 in /  0.0 mm 0.0 W/m2 FEW
04:36 78.3 °F /  25.7 °C 70.2 °F /  21.2 °C 29.7 in /  1005.3 hPa SSE 11.1 mph /  17.9 km/h 17.3 mph /  27.8 km/h 76 % 0 in /  0.0 mm 0.0 W/m2 FEW
04:41 78.3 °F /  25.7 °C 70 °F /  21.1 °C 29.7 in /  1005.3 hPa South 11.1 mph /  17.9 km/h 15 mph /  24.1 km/h 76 % 0 in /  0.0 mm 0.0 W/m2 FEW
04:46 78.1 °F /  25.6 °C 70 °F /  21.1 °C 29.7 in /  1005.3 hPa SSE 14.8 mph /  23.8 km/h 19.6 mph /  31.5 km/h 76 % 0 in /  0.0 mm 0.0 W/m2 FEW
04:51 78.1 °F /  25.6 °C 70.2 °F /  21.2 °C 29.7 in /  1005.3 hPa South 11 mph /  17.7 km/h 19.6 mph /  31.5 km/h 77 % 0 in /  0.0 mm 0.0 W/m2 FEW
04:56 78.1 °F /  25.6 °C 70.2 °F /  21.2 °C 29.7 in /  1005.3 hPa South 9.4 mph /  15.1 km/h 19.6 mph /  31.5 km/h 77 % 0 in /  0.0 mm 0.0 W/m2 FEW
05:01 77.7 °F /  25.4 °C 70 °F /  21.1 °C 29.7 in /  1005.3 hPa South 8.1 mph /  13.0 km/h 12 mph /  19.3 km/h 77 % 0 in /  0.0 mm 0.0 W/m2 FEW
05:06 77.5 °F /  25.3 °C 69.8 °F /  21.0 °C 29.7 in /  1005.3 hPa SSE 14.4 mph /  23.2 km/h 19.6 mph /  31.5 km/h 77 % 0 in /  0.0 mm 0.0 W/m2 FEW
05:11 77.5 °F /  25.3 °C 69.8 °F /  21.0 °C 29.7 in /  1005.3 hPa SE 14.1 mph /  22.7 km/h 19.6 mph /  31.5 km/h 77 % 0 in /  0.0 mm 0.0 W/m2 FEW
05:16 77.4 °F /  25.2 °C 69.6 °F /  20.9 °C 29.7 in /  1005.3 hPa SSE 9.2 mph /  14.8 km/h 13.8 mph /  22.2 km/h 77 % 0 in /  0.0 mm 0.0 W/m2 FEW
05:21 77.4 °F /  25.2 °C 69.6 °F /  20.9 °C 29.7 in /  1005.3 hPa South 10.8 mph /  17.4 km/h 18.4 mph /  29.6 km/h 77 % 0 in /  0.0 mm 0.0 W/m2 FEW
05:26 77.2 °F /  25.1 °C 69.4 °F /  20.8 °C 29.7 in /  1005.3 hPa SSW 8.2 mph /  13.2 km/h 11.5 mph /  18.5 km/h 77 % 0 in /  0.0 mm 0.0 W/m2 FEW
05:31 77.2 °F /  25.1 °C 69.6 °F /  20.9 °C 29.7 in /  1005.3 hPa SE 8 mph /  12.9 km/h 15 mph /  24.1 km/h 78 % 0 in /  0.0 mm 0.0 W/m2 FEW
05:36 77 °F /  25.0 °C 69.6 °F /  20.9 °C 29.7 in /  1005.3 hPa South 10.5 mph /  16.9 km/h 13.8 mph /  22.2 km/h 78 % 0 in /  0.0 mm 0.0 W/m2 FEW
05:41 76.8 °F /  24.9 °C 69.4 °F /  20.8 °C 29.7 in /  1005.3 hPa South 9.7 mph /  15.6 km/h 17.3 mph /  27.8 km/h 78 % 0 in /  0.0 mm 0.0 W/m2 FEW
05:46 76.6 °F /  24.8 °C 69.3 °F /  20.7 °C 29.7 in /  1005.3 hPa SSE 6 mph /  9.7 km/h 11.5 mph /  18.5 km/h 78 % 0 in /  0.0 mm 0.0 W/m2 FEW
05:51 76.5 °F /  24.7 °C 69.4 °F /  20.8 °C 29.7 in /  1005.3 hPa South 8.1 mph /  13.0 km/h 14 mph /  22.5 km/h 79 % 0 in /  0.0 mm 0.0 W/m2 FEW
05:56 76.5 °F /  24.7 °C 69.4 °F /  20.8 °C 29.7 in /  1005.3 hPa SSE 8.2 mph /  13.2 km/h 12.7 mph /  20.4 km/h 79 % 0 in /  0.0 mm 0.0 W/m2 FEW
06:01 76.3 °F /  24.6 °C 69.3 °F /  20.7 °C 29.7 in /  1005.3 hPa South 11.4 mph /  18.3 km/h 15 mph /  24.1 km/h 79 % 0 in /  0.0 mm 0.0 W/m2 FEW
06:06 76.3 °F /  24.6 °C 69.3 °F /  20.7 °C 29.7 in /  1005.3 hPa SSE 8.7 mph /  14.0 km/h 12 mph /  19.3 km/h 79 % 0 in /  0.0 mm 0.0 W/m2 FEW
06:11 76.3 °F /  24.6 °C 69.3 °F /  20.7 °C 29.7 in /  1005.6 hPa South 9.6 mph /  15.4 km/h 13.8 mph /  22.2 km/h 79 % 0 in /  0.0 mm 0.0 W/m2 FEW
06:12 76.3 °F /  24.6 °C 69.3 °F /  20.7 °C 29.7 in /  1005.6 hPa SE 10 mph /  16.1 km/h 12.7 mph /  20.4 km/h 79 % 0 in /  0.0 mm 0.0 W/m2 FEW
06:17 75.9 °F /  24.4 °C 69.1 °F /  20.6 °C 29.7 in /  1005.6 hPa South 8.4 mph /  13.5 km/h 12.7 mph /  20.4 km/h 79 % 0 in /  0.0 mm 0.0 W/m2 FEW
06:22 75.9 °F /  24.4 °C 69.1 °F /  20.6 °C 29.7 in /  1005.6 hPa SSE 5.6 mph /  9.0 km/h 12 mph /  19.3 km/h 79 % 0 in /  0.0 mm 0.0 W/m2 FEW
06:27 75.9 °F /  24.4 °C 69.3 °F /  20.7 °C 29.7 in /  1005.6 hPa SSE 7.6 mph /  12.2 km/h 11.5 mph /  18.5 km/h 80 % 0 in /  0.0 mm 0.0 W/m2 FEW
06:32 75.7 °F /  24.3 °C 69.1 °F /  20.6 °C 29.7 in /  1005.6 hPa SSE 7.1 mph /  11.4 km/h 11.5 mph /  18.5 km/h 80 % 0 in /  0.0 mm 0.0 W/m2 FEW
06:37 75.6 °F /  24.2 °C 69.1 °F /  20.6 °C 29.7 in /  1005.6 hPa SSE 9.2 mph /  14.8 km/h 12.7 mph /  20.4 km/h 80 % 0 in /  0.0 mm 0.0 W/m2 FEW
06:42 75.4 °F /  24.1 °C 69.3 °F /  20.7 °C 29.7 in /  1005.6 hPa SE 8.1 mph /  13.0 km/h 15 mph /  24.1 km/h 81 % 0 in /  0.0 mm 0.0 W/m2 FEW
06:47 75.2 °F /  24.0 °C 69.1 °F /  20.6 °C 29.7 in /  1005.6 hPa SSE 8.1 mph /  13.0 km/h 16.1 mph /  25.9 km/h 81 % 0 in /  0.0 mm 0.0 W/m2 FEW
06:57 74.8 °F /  23.8 °C 68.7 °F /  20.4 °C 29.7 in /  1005.6 hPa SSE 9.6 mph /  15.4 km/h 11.5 mph /  18.5 km/h 81 % 0 in /  0.0 mm 0.0 W/m2 FEW
07:02 74.8 °F /  23.8 °C 68.9 °F /  20.5 °C 29.7 in /  1005.6 hPa SSE 8.8 mph /  14.2 km/h 12.7 mph /  20.4 km/h 82 % 0 in /  0.0 mm 0.0 W/m2 FEW
07:07 74.7 °F /  23.7 °C 68.7 °F /  20.4 °C 29.7 in /  1005.6 hPa South 8.5 mph /  13.7 km/h 11.5 mph /  18.5 km/h 82 % 0 in /  0.0 mm 0.0 W/m2 FEW
07:12 74.5 °F /  23.6 °C 68.5 °F /  20.3 °C 29.7 in /  1005.6 hPa South 6.8 mph /  10.9 km/h 9 mph /  14.5 km/h 82 % 0 in /  0.0 mm 0.0 W/m2 FEW
07:17 74.5 °F /  23.6 °C 68.5 °F /  20.3 °C 29.7 in /  1005.6 hPa SSE 8.6 mph /  13.8 km/h 11 mph /  17.7 km/h 82 % 0 in /  0.0 mm 5.0 W/m2 FEW
07:22 74.1 °F /  23.4 °C 68.4 °F /  20.2 °C 29.7 in /  1005.6 hPa South 8.4 mph /  13.5 km/h 12 mph /  19.3 km/h 82 % 0 in /  0.0 mm 7.0 W/m2 FEW
07:27 74.1 °F /  23.4 °C 68.4 °F /  20.2 °C 29.7 in /  1005.6 hPa SSE 9.4 mph /  15.1 km/h 12.7 mph /  20.4 km/h 82 % 0 in /  0.0 mm 9.0 W/m2 FEW
07:32 74.1 °F /  23.4 °C 68.7 °F /  20.4 °C 29.7 in /  1005.6 hPa SSE 10.7 mph /  17.2 km/h 12 mph /  19.3 km/h 83 % 0 in /  0.0 mm 12.0 W/m2 FEW
07:37 74.1 °F /  23.4 °C 68.5 °F /  20.3 °C 29.7 in /  1005.6 hPa South 10.6 mph /  17.1 km/h 13.8 mph /  22.2 km/h 83 % 0 in /  0.0 mm 14.0 W/m2 FEW
07:42 73.9 °F /  23.3 °C 68.5 °F /  20.3 °C 29.7 in /  1005.6 hPa SSE 9.6 mph /  15.4 km/h 12 mph /  19.3 km/h 83 % 0 in /  0.0 mm 19.0 W/m2 FEW
07:47 73.9 °F /  23.3 °C 68.5 °F /  20.3 °C 29.7 in /  1005.6 hPa South 7.7 mph /  12.4 km/h 13.8 mph /  22.2 km/h 83 % 0 in /  0.0 mm 25.0 W/m2 FEW
07:52 74.1 °F /  23.4 °C 68.5 °F /  20.3 °C 29.7 in /  1005.6 hPa South 10.2 mph /  16.4 km/h 17.3 mph /  27.8 km/h 83 % 0 in /  0.0 mm 26.0 W/m2 FEW
07:57 74.1 °F /  23.4 °C 68.5 °F /  20.3 °C 29.7 in /  1005.6 hPa SSE 8 mph /  12.9 km/h 10.4 mph /  16.7 km/h 83 % 0 in /  0.0 mm 42.0 W/m2 FEW
08:02 74.5 °F /  23.6 °C 68.5 °F /  20.3 °C 29.7 in /  1005.6 hPa SSW 10.2 mph /  16.4 km/h 11.5 mph /  18.5 km/h 82 % 0 in /  0.0 mm 62.0 W/m2 FEW
08:07 74.7 °F /  23.7 °C 68.7 °F /  20.4 °C 29.7 in /  1005.6 hPa South 9.6 mph /  15.4 km/h 12.7 mph /  20.4 km/h 82 % 0 in /  0.0 mm 74.0 W/m2 FEW
08:12 74.8 °F /  23.8 °C 68.9 °F /  20.5 °C 29.7 in /  1005.6 hPa SSE 10 mph /  16.1 km/h 15 mph /  24.1 km/h 82 % 0 in /  0.0 mm 88.0 W/m2 FEW
08:17 75 °F /  23.9 °C 68.9 °F /  20.5 °C 29.7 in /  1005.6 hPa SSE 8.2 mph /  13.2 km/h 12.7 mph /  20.4 km/h 81 % 0 in /  0.0 mm 104.0 W/m2 FEW
08:22 75.4 °F /  24.1 °C 68.7 °F /  20.4 °C 29.7 in /  1005.6 hPa SSE 8.6 mph /  13.8 km/h 12.7 mph /  20.4 km/h 80 % 0 in /  0.0 mm 121.0 W/m2 FEW
08:27 75.6 °F /  24.2 °C 69.1 °F /  20.6 °C 29.7 in /  1005.6 hPa SSE 8.1 mph /  13.0 km/h 13.8 mph /  22.2 km/h 80 % 0 in /  0.0 mm 137.0 W/m2 FEW
08:32 75.7 °F /  24.3 °C 68.7 °F /  20.4 °C 29.7 in /  1005.6 hPa SSE 9.8 mph /  15.8 km/h 17.3 mph /  27.8 km/h 79 % 0 in /  0.0 mm 151.0 W/m2 FEW
08:37 76.1 °F /  24.5 °C 69.1 °F /  20.6 °C 29.7 in /  1005.6 hPa South 8.6 mph /  13.8 km/h 13.8 mph /  22.2 km/h 79 % 0 in /  0.0 mm 171.0 W/m2 FEW
08:42 76.3 °F /  24.6 °C 69.3 °F /  20.7 °C 29.7 in /  1005.6 hPa South 13.2 mph /  21.2 km/h 19.6 mph /  31.5 km/h 79 % 0 in /  0.0 mm 181.0 W/m2 FEW
08:47 76.6 °F /  24.8 °C 69.3 °F /  20.7 °C 29.7 in /  1005.6 hPa SSE 11.3 mph /  18.2 km/h 15 mph /  24.1 km/h 78 % 0 in /  0.0 mm 202.0 W/m2 FEW
08:52 76.8 °F /  24.9 °C 69.1 °F /  20.6 °C 29.7 in /  1005.6 hPa SSE 12.3 mph /  19.8 km/h 16.1 mph /  25.9 km/h 77 % 0 in /  0.0 mm 214.0 W/m2 FEW
08:57 77.2 °F /  25.1 °C 69.3 °F /  20.7 °C 29.7 in /  1005.6 hPa South 12 mph /  19.3 km/h 16.1 mph /  25.9 km/h 77 % 0 in /  0.0 mm 234.0 W/m2 FEW
09:02 77.4 °F /  25.2 °C 69.1 °F /  20.6 °C 29.7 in /  1005.6 hPa SSE 11.8 mph /  19.0 km/h 18.4 mph /  29.6 km/h 76 % 0 in /  0.0 mm 248.0 W/m2 FEW
09:07 77.5 °F /  25.3 °C 69.4 °F /  20.8 °C 29.7 in /  1005.6 hPa South 13.2 mph /  21.2 km/h 15 mph /  24.1 km/h 76 % 0 in /  0.0 mm 258.0 W/m2 FEW
09:12 77.9 °F /  25.5 °C 69.3 °F /  20.7 °C 29.7 in /  1005.6 hPa South 10.6 mph /  17.1 km/h 18.4 mph /  29.6 km/h 75 % 0 in /  0.0 mm 276.0 W/m2 FEW
09:17 78.3 °F /  25.7 °C 69.3 °F /  20.7 °C 29.7 in /  1005.6 hPa SSE 13.3 mph /  21.4 km/h 21.9 mph /  35.2 km/h 74 % 0 in /  0.0 mm 290.0 W/m2 FEW
09:22 78.4 °F /  25.8 °C 69.1 °F /  20.6 °C 29.7 in /  1005.6 hPa SSW 13.8 mph /  22.2 km/h 19.6 mph /  31.5 km/h 73 % 0 in /  0.0 mm 304.0 W/m2 FEW
09:27 78.8 °F /  26.0 °C 69.4 °F /  20.8 °C 29.7 in /  1005.6 hPa South 11.9 mph /  19.1 km/h 19.6 mph /  31.5 km/h 73 % 0 in /  0.0 mm 320.0 W/m2 FEW
09:32 79.2 °F /  26.2 °C 69.3 °F /  20.7 °C 29.7 in /  1005.6 hPa SSE 13.4 mph /  21.6 km/h 17.3 mph /  27.8 km/h 72 % 0 in /  0.0 mm 334.0 W/m2 FEW
09:37 79.2 °F /  26.2 °C 69.4 °F /  20.8 °C 29.7 in /  1005.6 hPa South 16.6 mph /  26.7 km/h 20 mph /  32.2 km/h 72 % 0 in /  0.0 mm 350.0 W/m2 FEW
09:42 79.5 °F /  26.4 °C 69.8 °F /  21.0 °C 29.7 in /  1006.0 hPa SSE 12.4 mph /  20.0 km/h 16.1 mph /  25.9 km/h 72 % 0 in /  0.0 mm 364.0 W/m2 FEW
09:47 79.9 °F /  26.6 °C 69.3 °F /  20.7 °C 29.7 in /  1006.0 hPa South 9.8 mph /  15.8 km/h 12.7 mph /  20.4 km/h 70 % 0 in /  0.0 mm 374.0 W/m2 FEW
09:52 80.2 °F /  26.8 °C 69.4 °F /  20.8 °C 29.7 in /  1006.0 hPa South 18 mph /  29.0 km/h 18.4 mph /  29.6 km/h 70 % 0 in /  0.0 mm 387.0 W/m2 FEW
09:57 80.4 °F /  26.9 °C 69.8 °F /  21.0 °C 29.7 in /  1006.0 hPa South 18 mph /  29.0 km/h 18.4 mph /  29.6 km/h 70 % 0 in /  0.0 mm 403.0 W/m2 FEW
10:02 81 °F /  27.2 °C 69.3 °F /  20.7 °C 29.7 in /  1006.0 hPa SSE 11.5 mph /  18.5 km/h 17.3 mph /  27.8 km/h 68 % 0 in /  0.0 mm 420.0 W/m2 FEW
10:07 81.3 °F /  27.4 °C 69.8 °F /  21.0 °C 29.7 in /  1006.0 hPa SSE 14.4 mph /  23.2 km/h 18.4 mph /  29.6 km/h 68 % 0 in /  0.0 mm 431.0 W/m2 FEW
10:12 81.7 °F /  27.6 °C 69.3 °F /  20.7 °C 29.7 in /  1006.0 hPa SSW 13.1 mph /  21.1 km/h 23 mph /  37.0 km/h 66 % 0 in /  0.0 mm 443.0 W/m2 FEW
10:17 81.9 °F /  27.7 °C 69.3 °F /  20.7 °C 29.7 in /  1006.0 hPa South 13.7 mph /  22.0 km/h 19.6 mph /  31.5 km/h 66 % 0 in /  0.0 mm 455.0 W/m2 FEW
10:22 82.2 °F /  27.9 °C 69.4 °F /  20.8 °C 29.7 in /  1006.0 hPa South 12.8 mph /  20.6 km/h 19.6 mph /  31.5 km/h 65 % 0 in /  0.0 mm 469.0 W/m2 FEW
10:23 82.2 °F /  27.9 °C 69.4 °F /  20.8 °C 29.7 in /  1006.0 hPa South 13.3 mph /  21.4 km/h 19.6 mph /  31.5 km/h 65 % 0 in /  0.0 mm 471.0 W/m2 FEW
10:28 82.8 °F /  28.2 °C 69.4 °F /  20.8 °C 29.7 in /  1006.0 hPa South 13.5 mph /  21.7 km/h 25 mph /  40.2 km/h 64 % 0 in /  0.0 mm 483.0 W/m2 FEW
10:33 83.1 °F /  28.4 °C 69.8 °F /  21.0 °C 29.7 in /  1006.0 hPa South 14.5 mph /  23.3 km/h 26.5 mph /  42.6 km/h 64 % 0 in /  0.0 mm 494.0 W/m2 FEW
10:38 83.3 °F /  28.5 °C 69.4 °F /  20.8 °C 29.7 in /  1006.0 hPa SSE 14.7 mph /  23.7 km/h 20.7 mph /  33.3 km/h 63 % 0 in /  0.0 mm 504.0 W/m2 FEW
10:43 83.5 °F /  28.6 °C 69.4 °F /  20.8 °C 29.7 in /  1006.0 hPa South 15 mph /  24.1 km/h 25 mph /  40.2 km/h 63 % 0 in /  0.0 mm 520.0 W/m2 FEW
10:48 83.7 °F /  28.7 °C 69.3 °F /  20.7 °C 29.7 in /  1006.0 hPa SSW 16.6 mph /  26.7 km/h 25.3 mph /  40.7 km/h 62 % 0 in /  0.0 mm 529.0 W/m2 FEW
10:53 83.8 °F /  28.8 °C 69.4 °F /  20.8 °C 29.7 in /  1006.0 hPa South 12.7 mph /  20.4 km/h 18.4 mph /  29.6 km/h 62 % 0 in /  0.0 mm 541.0 W/m2 FEW
10:58 84 °F /  28.9 °C 69.3 °F /  20.7 °C 29.7 in /  1006.0 hPa SSE 16.4 mph /  26.4 km/h 23 mph /  37.0 km/h 61 % 0 in /  0.0 mm 552.0 W/m2 FEW
11:03 84.4 °F /  29.1 °C 69.4 °F /  20.8 °C 29.7 in /  1006.0 hPa South 17.3 mph /  27.8 km/h 23 mph /  37.0 km/h 61 % 0 in /  0.0 mm 563.0 W/m2 FEW
11:08 84.7 °F /  29.3 °C 69.3 °F /  20.7 °C 29.7 in /  1006.0 hPa South 17.8 mph /  28.6 km/h 24.2 mph /  38.9 km/h 60 % 0 in /  0.0 mm 573.0 W/m2 FEW
11:13 84.7 °F /  29.3 °C 69.4 °F /  20.8 °C 29.7 in /  1006.0 hPa SSW 16.6 mph /  26.7 km/h 21.9 mph /  35.2 km/h 60 % 0 in /  0.0 mm 584.0 W/m2 FEW
11:18 85.1 °F /  29.5 °C 69.6 °F /  20.9 °C 29.7 in /  1006.0 hPa South 13.8 mph /  22.2 km/h 24.2 mph /  38.9 km/h 60 % 0 in /  0.0 mm 591.0 W/m2 FEW
11:23 85.6 °F /  29.8 °C 69.6 °F /  20.9 °C 29.7 in /  1006.0 hPa South 14.7 mph /  23.7 km/h 19.6 mph /  31.5 km/h 59 % 0 in /  0.0 mm 606.0 W/m2 FEW
11:28 86 °F /  30.0 °C 69.4 °F /  20.8 °C 29.7 in /  1006.0 hPa SSE 16.4 mph /  26.4 km/h 23 mph /  37.0 km/h 58 % 0 in /  0.0 mm 628.0 W/m2 FEW
11:33 86 °F /  30.0 °C 69.4 °F /  20.8 °C 29.7 in /  1006.0 hPa South 12.9 mph /  20.8 km/h 17.3 mph /  27.8 km/h 58 % 0 in /  0.0 mm 647.0 W/m2 FEW
11:38 86.4 °F /  30.2 °C 69.3 °F /  20.7 °C 29.7 in /  1006.0 hPa SSW 16.2 mph /  26.1 km/h 20.7 mph /  33.3 km/h 57 % 0 in /  0.0 mm 650.0 W/m2 FEW
11:43 86.5 °F /  30.3 °C 69.4 °F /  20.8 °C 29.7 in /  1006.0 hPa SSW 15.7 mph /  25.3 km/h 19.6 mph /  31.5 km/h 57 % 0 in /  0.0 mm 659.0 W/m2 FEW
11:48 86.4 °F /  30.2 °C 70 °F /  21.1 °C 29.7 in /  1006.0 hPa South 12 mph /  19.3 km/h 16.1 mph /  25.9 km/h 58 % 0 in /  0.0 mm 657.0 W/m2 FEW
11:53 86.7 °F /  30.4 °C 69.6 °F /  20.9 °C 29.7 in /  1006.0 hPa SSW 16.5 mph /  26.5 km/h 20.7 mph /  33.3 km/h 57 % 0 in /  0.0 mm 675.0 W/m2 FEW
11:58 87.3 °F /  30.7 °C 69.6 °F /  20.9 °C 29.7 in /  1006.0 hPa South 14.6 mph /  23.5 km/h 19.6 mph /  31.5 km/h 56 % 0 in /  0.0 mm 408.0 W/m2 FEW
12:03 87.3 °F /  30.7 °C 69.6 °F /  20.9 °C 29.7 in /  1006.0 hPa South 13.1 mph /  21.1 km/h 19.6 mph /  31.5 km/h 56 % 0 in /  0.0 mm 394.0 W/m2 FEW
12:08 87.4 °F /  30.8 °C 70 °F /  21.1 °C 29.7 in /  1006.0 hPa SSE 13.5 mph /  21.7 km/h 19.6 mph /  31.5 km/h 56 % 0 in /  0.0 mm 401.0 W/m2 FEW
12:13 87.4 °F /  30.8 °C 69.8 °F /  21.0 °C 29.7 in /  1006.0 hPa SSW 12.7 mph /  20.4 km/h 18.4 mph /  29.6 km/h 56 % 0 in /  0.0 mm 798.0 W/m2 FEW
12:18 87.6 °F /  30.9 °C 69.1 °F /  20.6 °C 29.7 in /  1006.0 hPa SSW 14.3 mph /  23.0 km/h 18 mph /  29.0 km/h 54 % 0 in /  0.0 mm 487.0 W/m2 FEW
12:23 87.6 °F /  30.9 °C 69.4 °F /  20.8 °C 29.7 in /  1005.6 hPa SSE 16.1 mph /  25.9 km/h 19.6 mph /  31.5 km/h 55 % 0 in /  0.0 mm 316.0 W/m2 FEW
12:28 87.8 °F /  31.0 °C 69.6 °F /  20.9 °C 29.7 in /  1005.6 hPa SSW 12.4 mph /  20.0 km/h 18.4 mph /  29.6 km/h 55 % 0 in /  0.0 mm 703.0 W/m2 FEW
12:33 88.3 °F /  31.3 °C 69.6 °F /  20.9 °C 29.7 in /  1005.6 hPa SW 14.7 mph /  23.7 km/h 19.6 mph /  31.5 km/h 54 % 0 in /  0.0 mm 703.0 W/m2 FEW
12:38 88.9 °F /  31.6 °C 70 °F /  21.1 °C 29.7 in /  1005.6 hPa SSE 12.1 mph /  19.5 km/h 17 mph /  27.4 km/h 54 % 0 in /  0.0 mm 700.0 W/m2 FEW
12:43 89.1 °F /  31.7 °C 69.6 °F /  20.9 °C 29.7 in /  1005.6 hPa South 12.5 mph /  20.1 km/h 17.3 mph /  27.8 km/h 53 % 0 in /  0.0 mm 705.0 W/m2 FEW
12:48 89.1 °F /  31.7 °C 69.6 °F /  20.9 °C 29.7 in /  1005.6 hPa SSE 17.7 mph /  28.5 km/h 27.6 mph /  44.4 km/h 53 % 0 in /  0.0 mm 705.0 W/m2 FEW
12:53 89.1 °F /  31.7 °C 69.6 °F /  20.9 °C 29.7 in /  1005.6 hPa SSE 16.6 mph /  26.7 km/h 23 mph /  37.0 km/h 53 % 0 in /  0.0 mm 707.0 W/m2 FEW
12:58 89.2 °F /  31.8 °C 70 °F /  21.1 °C 29.7 in /  1005.6 hPa SSE 12.7 mph /  20.4 km/h 20 mph /  32.2 km/h 53 % 0 in /  0.0 mm 708.0 W/m2 FEW
13:03 89.4 °F /  31.9 °C 70.2 °F /  21.2 °C 29.7 in /  1005.3 hPa SSE 17.4 mph /  28.0 km/h 23 mph /  37.0 km/h 53 % 0 in /  0.0 mm 714.0 W/m2 FEW
13:08 89.6 °F /  32.0 °C 69.6 °F /  20.9 °C 29.7 in /  1005.6 hPa South 19.9 mph /  32.0 km/h 26.5 mph /  42.6 km/h 52 % 0 in /  0.0 mm 714.0 W/m2 FEW
13:13 89.8 °F /  32.1 °C 69.3 °F /  20.7 °C 29.7 in /  1005.3 hPa South 17.5 mph /  28.2 km/h 24.2 mph /  38.9 km/h 51 % 0 in /  0.0 mm 715.0 W/m2 FEW
13:18 90.1 °F /  32.3 °C 69.1 °F /  20.6 °C 29.7 in /  1005.3 hPa South 13.2 mph /  21.2 km/h 27.6 mph /  44.4 km/h 50 % 0 in /  0.0 mm 717.0 W/m2 FEW
13:23 90.1 °F /  32.3 °C 69.6 °F /  20.9 °C 29.7 in /  1005.3 hPa South 15.8 mph /  25.4 km/h 24 mph /  38.6 km/h 51 % 0 in /  0.0 mm 715.0 W/m2 FEW
13:28 90.3 °F /  32.4 °C 69.3 °F /  20.7 °C 29.7 in /  1005.3 hPa South 12.5 mph /  20.1 km/h 18.4 mph /  29.6 km/h 50 % 0 in /  0.0 mm 715.0 W/m2 FEW
13:33 90.9 °F /  32.7 °C 69.1 °F /  20.6 °C 29.7 in /  1005.3 hPa SE 12.7 mph /  20.4 km/h 16.1 mph /  25.9 km/h 49 % 0 in /  0.0 mm 717.0 W/m2 FEW
13:38 91 °F /  32.8 °C 69.8 °F /  21.0 °C 29.7 in /  1005.3 hPa South 14.1 mph /  22.7 km/h 19.6 mph /  31.5 km/h 50 % 0 in /  0.0 mm 719.0 W/m2 FEW
13:43 91 °F /  32.8 °C 69.3 °F /  20.7 °C 29.7 in /  1005.3 hPa SSW 16.3 mph /  26.2 km/h 21.9 mph /  35.2 km/h 49 % 0 in /  0.0 mm 722.0 W/m2 FEW
13:48 91.6 °F /  33.1 °C 69.1 °F /  20.6 °C 29.7 in /  1005.3 hPa South 13.1 mph /  21.1 km/h 17 mph /  27.4 km/h 48 % 0 in /  0.0 mm 708.0 W/m2 FEW
13:53 92.1 °F /  33.4 °C 69.1 °F /  20.6 °C 29.7 in /  1005.0 hPa SSW 17.5 mph /  28.2 km/h 24.2 mph /  38.9 km/h 47 % 0 in /  0.0 mm 598.0 W/m2 FEW
13:58 92.1 °F /  33.4 °C 69.6 °F /  20.9 °C 29.7 in /  1005.0 hPa SE 15.7 mph /  25.3 km/h 20.7 mph /  33.3 km/h 48 % 0 in /  0.0 mm 464.0 W/m2 FEW
Friend Weather
Compliments of Weather Underground - 1.5 mb